TAF Text Data
IDs:
Format:
Raw Decoded Include METAR

Data at: 0646 UTC 28 Sep 2022

METAR for:KPWK (Chicago/Executive Ar, IL, US)
Text:KPWK 280552Z AUTO 33008KT 10SM OVC065 09/06 A3031 RMK AO2 SLP265 T00940056 10128 20094 401610078 51013 PWINO $
Temperature: 9.4°C ( 49°F)
Dewpoint: 5.6°C ( 42°F) [RH = 77%]
Pressure (altimeter):30.31 inches Hg (1026.5 mb) [Sea level pressure: 1026.5 mb]
Winds:from the NNW (330 degrees) at 9 MPH (8 knots; 4.1 m/s)
Visibility:10 or more sm (16+ km)
Ceiling:6500 feet AGL
Clouds: overcast cloud deck at 6500 feet AGL
QC Flag:automated observation with no human augmentation; SOME DATA ABOVE MAY BE INACCURATE!!!"$" is an indication the sensor requires maintenance.

TAF for:KPWK (Chicago/Executive Ar, IL, US)
Text:No data found

METAR for:KORD (Chicago/O'Hare Intl, IL, US)
Text:KORD 280551Z 32007KT 10SM BKN065 10/05 A3029 RMK AO2 SLP258 T01000050 10122 20100 401610078 51012
Temperature: 10.0°C ( 50°F)
Dewpoint: 5.0°C ( 41°F) [RH = 71%]
Pressure (altimeter):30.29 inches Hg (1025.8 mb) [Sea level pressure: 1025.8 mb]
Winds:from the NW (320 degrees) at 8 MPH (7 knots; 3.6 m/s)
Visibility:10 or more sm (16+ km)
Ceiling:6500 feet AGL
Clouds: broken clouds at 6500 feet AGL

TAF for:KORD (Chicago/O'Hare Intl, IL, US) issued at 0539 UTC 28 Sep 2022
Text:KORD 280539Z 2806/2912 33010KT P6SM FEW030 BKN060
Forecast period:0600 to 1600 UTC 28 September 2022
Forecast type:FROM: standard forecast or significant change
Winds:from the NNW (330 degrees) at 12 MPH (10 knots; 5.1 m/s)
Visibility:6 or more sm (10+ km)
Ceiling:6000 feet AGL
Clouds: few clouds at 3000 feet AGL, broken clouds at 6000 feet AGL
Text:FM281600 02011KT P6SM SCT030 BKN040
Forecast period:1600 UTC 28 September 2022 to 0500 UTC 29 September 2022
Forecast type:FROM: standard forecast or significant change
Winds:from the NNE (20 degrees) at 13 MPH (11 knots; 5.7 m/s)
Visibility:6 or more sm (10+ km)
Ceiling:4000 feet AGL
Clouds: scattered clouds at 3000 feet AGL, broken clouds at 4000 feet AGL
Text:FM290500 VRB03KT P6SM SCT025
Forecast period:0500 to 1200 UTC 29 September 2022
Forecast type:FROM: standard forecast or significant change
Winds:variable direction winds at 3 MPH (3 knots; 1.5 m/s)
Visibility:6 or more sm (10+ km)
Ceiling:at least 12,000 feet AGL
Clouds: scattered clouds at 2500 feet AGL

METAR for:KRFD (Rockford Intl, IL, US)
Text:KRFD 280554Z 35005KT 10SM BKN050 07/04 A3035 RMK AO2 SLP280 T00720044 10122 20072 401610044 51013
Temperature: 7.2°C ( 45°F)
Dewpoint: 4.4°C ( 40°F) [RH = 82%]
Pressure (altimeter):30.35 inches Hg (1027.9 mb) [Sea level pressure: 1028.0 mb]
Winds:from the N (350 degrees) at 6 MPH (5 knots; 2.6 m/s)
Visibility:10 or more sm (16+ km)
Ceiling:5000 feet AGL
Clouds: broken clouds at 5000 feet AGL

TAF for:KRFD (Rockford Intl, IL, US) issued at 0539 UTC 28 Sep 2022
Text:KRFD 280539Z 2806/2906 34004KT P6SM SCT050
Forecast period:0600 to 1400 UTC 28 September 2022
Forecast type:FROM: standard forecast or significant change
Winds:from the NNW (340 degrees) at 5 MPH (4 knots; 2.1 m/s)
Visibility:6 or more sm (10+ km)
Ceiling:at least 12,000 feet AGL
Clouds: scattered clouds at 5000 feet AGL
Text:FM281400 01010KT P6SM FEW050
Forecast period:1400 UTC 28 September 2022 to 0100 UTC 29 September 2022
Forecast type:FROM: standard forecast or significant change
Winds:from the N (10 degrees) at 12 MPH (10 knots; 5.1 m/s)
Visibility:6 or more sm (10+ km)
Ceiling:at least 12,000 feet AGL
Clouds: few clouds at 5000 feet AGL
Text:FM290100 VRB03KT P6SM SKC
Forecast period:0100 to 0600 UTC 29 September 2022
Forecast type:FROM: standard forecast or significant change
Winds:variable direction winds at 3 MPH (3 knots; 1.5 m/s)
Visibility:6 or more sm (10+ km)
Ceiling:at least 12,000 feet AGL
Clouds:clear skies